Terminal Aerodrome Forecast
Issued by NWS

Home | Current Version | Previous Version | Text Only | Print | Product List | Glossary On
Versions: 1 2 3 4 5 6 7 8 9 10 11 12 13 14 15 16 17 18 19 20 21 22 23 24 25 26 27 28 29 30 31 32 33 34 35 36
000
FTUS43 KDTX 191720
TAFPTK
TAF
KPTK 191720Z 1918/2018 28014G22KT P6SM SCT025 OVC035
      TEMPO 1918/1922 5SM -SHSN BR OVC025
     FM200000 27010KT P6SM BKN035
     FM200700 24008KT P6SM SCT070 BKN100
     FM201400 22014KT P6SM SCT150=

USA.gov is the U.S. government's official web portal to all federal, state and local government web resources and services.